Time;durP1;ratioP1;P1;durP2;ratioP2;P2;SDS_P1;SDS_P2;PMS_P1;PMS_P2;Temp;Humidity;BMP_temperature;BMP_pressure;BME280_temperature;BME280_humidity;BME280_pressure;Samples;Min_cycle;Max_cycle;Signal;HPM_P1;HPM_P2
2023/06/25 00:01:38;;;;;;;1.83;0.90;;;;;;;-146.25;100.00;57403.91;5029061;28;20234;-81
2023/06/25 00:04:10;;;;;;;1.45;1.27;;;;;;;-146.25;100.00;57403.91;5043283;28;20238;-80
2023/06/25 00:06:47;;;;;;;0.25;0.25;;;;;;;-146.25;100.00;57403.91;5048409;28;20366;-81
2023/06/25 00:09:16;;;;;;;0.47;0.47;;;;;;;-146.25;100.00;57403.91;5048531;28;20221;-80
2023/06/25 00:12:04;;;;;;;0.30;0.30;;;;;;;-146.25;100.00;57403.91;5049304;28;20230;-81
2023/06/25 00:14:31;;;;;;;0.20;0.20;;;;;;;-146.25;100.00;57403.91;5047920;28;20233;-80
2023/06/25 00:17:03;;;;;;;0.60;0.60;;;;;;;-146.25;100.00;57403.91;5048678;28;20221;-80
2023/06/25 00:19:56;;;;;;;0.15;0.15;;;;;;;-146.25;100.00;57403.91;5049253;28;20231;-80
2023/06/25 00:22:24;;;;;;;0.17;0.17;;;;;;;-146.25;100.00;57403.91;5047660;28;20231;-80
2023/06/25 00:24:51;;;;;;;0.55;0.55;;;;;;;-146.25;100.00;57403.91;5048230;28;20328;-80
2023/06/25 00:27:18;;;;;;;0.35;0.35;;;;;;;-146.25;100.00;57403.91;5048689;28;20249;-81
2023/06/25 00:29:45;;;;;;;0.93;0.75;;;;;;;-146.25;100.00;57403.91;5047802;28;20253;-81
2023/06/25 00:32:15;;;;;;;0.35;0.35;;;;;;;-146.25;100.00;57403.91;5048046;28;20275;-80
2023/06/25 00:34:42;;;;;;;0.55;0.30;;;;;;;-146.25;100.00;57403.91;5048962;28;20295;-80
2023/06/25 00:37:16;;;;;;;0.52;0.52;;;;;;;-146.25;100.00;57403.91;5047640;28;20218;-82
2023/06/25 00:39:44;;;;;;;0.17;0.17;;;;;;;-146.25;100.00;57403.91;5048303;28;20220;-80
2023/06/25 00:42:11;;;;;;;0.20;0.20;;;;;;;-146.25;100.00;57403.91;5048185;28;20222;-80
2023/06/25 00:44:50;;;;;;;1.95;0.55;;;;;;;-146.25;100.00;57403.91;5047332;28;20337;-79
2023/06/25 00:47:19;;;;;;;0.52;0.52;;;;;;;-146.25;100.00;57403.91;5048189;28;20241;-80
2023/06/25 00:49:50;;;;;;;1.38;0.35;;;;;;;-146.25;100.00;57403.91;5048788;28;20234;-81
2023/06/25 00:52:33;;;;;;;2.67;0.95;;;;;;;-146.25;100.00;57403.91;5047839;28;20231;-83
2023/06/25 00:55:14;;;;;;;0.35;0.35;;;;;;;-146.25;100.00;57403.91;5034003;28;20293;-80
2023/06/25 00:57:41;;;;;;;0.10;0.10;;;;;;;-146.25;100.00;57403.91;5027475;28;20233;-80
2023/06/25 01:00:12;;;;;;;0.32;0.32;;;;;;;-146.25;100.00;57403.91;5033936;28;20229;-80
2023/06/25 01:02:46;;;;;;;0.17;0.17;;;;;;;-146.25;100.00;57403.91;5048544;28;20250;-80
2023/06/25 01:05:19;;;;;;;1.42;0.28;;;;;;;-146.25;100.00;57403.91;5048788;28;20213;-81
2023/06/25 01:07:47;;;;;;;0.20;0.20;;;;;;;-146.25;100.00;57403.91;5048298;28;20568;-81
2023/06/25 01:10:14;;;;;;;0.55;0.55;;;;;;;-146.25;100.00;57403.91;5048601;28;20210;-80
2023/06/25 01:12:42;;;;;;;0.80;0.80;;;;;;;-146.25;100.00;57403.91;5047891;28;20237;-80
2023/06/25 01:15:10;;;;;;;1.05;1.05;;;;;;;-146.25;100.00;57403.91;5048466;28;20197;-81
2023/06/25 01:17:37;;;;;;;0.57;0.57;;;;;;;-146.25;100.00;57403.91;5048303;28;20214;-80
2023/06/25 01:20:11;;;;;;;0.63;0.63;;;;;;;-146.25;100.00;57403.91;5048896;28;20195;-81
2023/06/25 01:22:40;;;;;;;0.40;0.40;;;;;;;-146.25;100.00;57403.91;5048727;28;20229;-81
2023/06/25 01:25:10;;;;;;;1.52;0.80;;;;;;;-146.25;100.00;57403.91;5047857;28;20297;-83
2023/06/25 01:27:39;;;;;;;1.85;0.75;;;;;;;-146.25;100.00;57403.91;5048185;28;20242;-82
2023/06/25 01:31:06;;;;;;;0.85;0.77;;;;;;;-146.25;100.00;57403.91;5047955;28;20222;-81
2023/06/25 01:34:31;;;;;;;1.35;1.30;;;;;;;-146.25;100.00;57403.91;5048086;28;20222;-81
2023/06/25 01:37:58;;;;;;;0.22;0.22;;;;;;;-146.25;100.00;57403.91;5048402;28;20673;-80
2023/06/25 01:41:24;;;;;;;2.90;0.68;;;;;;;-146.25;100.00;57403.91;5047069;28;20655;-81
2023/06/25 01:44:49;;;;;;;2.22;0.75;;;;;;;-146.25;100.00;57403.91;5048562;28;20244;-81
2023/06/25 01:48:15;;;;;;;0.68;0.63;;;;;;;-146.25;100.00;57403.91;5047545;28;20233;-82
2023/06/25 01:51:40;;;;;;;1.60;0.45;;;;;;;-146.25;100.00;57403.91;5047336;28;20237;-81
2023/06/25 01:54:08;;;;;;;0.88;0.88;;;;;;;-146.25;100.00;57403.91;5046530;28;20340;-82
2023/06/25 01:56:35;;;;;;;0.57;0.50;;;;;;;-146.25;100.00;57403.91;5047892;28;20211;-81
2023/06/25 01:59:02;;;;;;;0.90;0.52;;;;;;;-146.25;100.00;57403.91;5048101;28;20194;-80
2023/06/25 02:01:29;;;;;;;1.27;0.75;;;;;;;-146.25;100.00;57403.91;5047179;28;20275;-81
2023/06/25 02:03:56;;;;;;;0.63;0.63;;;;;;;-146.25;100.00;57403.91;5047985;28;20276;-81
2023/06/25 02:06:23;;;;;;;0.93;0.38;;;;;;;-146.25;100.00;57403.91;5047410;28;20206;-81
2023/06/25 02:08:49;;;;;;;2.47;0.70;;;;;;;-146.25;100.00;57403.91;5046405;28;20376;-80
2023/06/25 02:11:18;;;;;;;0.10;0.10;;;;;;;-146.25;100.00;57403.91;5048267;28;20219;-80
2023/06/25 02:13:45;;;;;;;0.65;0.65;;;;;;;-146.25;100.00;57403.91;5046456;28;20207;-80
2023/06/25 02:16:11;;;;;;;1.65;1.35;;;;;;;-146.25;100.00;57403.91;5046660;28;20207;-80
2023/06/25 02:18:38;;;;;;;0.45;0.45;;;;;;;-146.25;100.00;57403.91;5046823;28;20216;-81
2023/06/25 02:21:05;;;;;;;0.50;0.50;;;;;;;-146.25;100.00;57403.91;5046841;28;20638;-81
2023/06/25 02:24:30;;;;;;;0.50;0.50;;;;;;;-146.25;100.00;57403.91;5046969;28;20207;-81
2023/06/25 02:27:26;;;;;;;0.52;0.47;;;;;;;-146.25;100.00;57403.91;5047859;28;20202;-81
2023/06/25 02:29:52;;;;;;;1.98;1.17;;;;;;;-146.25;100.00;57403.91;5046902;28;20214;-80
2023/06/25 02:32:19;;;;;;;1.90;0.75;;;;;;;-146.25;100.00;57403.91;5046998;28;20271;-79
2023/06/25 02:34:49;;;;;;;0.32;0.22;;;;;;;-146.25;100.00;57403.91;5047235;28;20263;-81
2023/06/25 02:37:16;;;;;;;0.70;0.70;;;;;;;-146.25;100.00;57403.91;5047089;28;20197;-80
2023/06/25 02:39:44;;;;;;;0.75;0.50;;;;;;;-146.25;100.00;57403.91;5047436;28;20198;-80
2023/06/25 02:42:12;;;;;;;1.23;1.15;;;;;;;-146.25;100.00;57403.91;5048213;28;20215;-80
2023/06/25 02:44:39;;;;;;;0.40;0.35;;;;;;;-146.25;100.00;57403.91;5046831;28;20211;-81
2023/06/25 02:47:07;;;;;;;1.58;1.48;;;;;;;-146.25;100.00;57403.91;5047089;28;20202;-81
2023/06/25 02:49:34;;;;;;;5.53;1.83;;;;;;;-146.25;100.00;57403.91;5047250;28;20245;-81
2023/06/25 02:52:01;;;;;;;2.28;2.17;;;;;;;-146.25;100.00;57403.91;5046711;28;20603;-80
2023/06/25 02:54:28;;;;;;;2.00;1.88;;;;;;;-146.25;100.00;57403.91;5047931;28;20201;-81
2023/06/25 02:57:49;;;;;;;2.47;2.38;;;;;;;-146.25;100.00;57403.91;5047330;28;20252;-80
2023/06/25 03:00:17;;;;;;;3.83;2.00;;;;;;;-146.25;100.00;57403.91;5047395;28;20585;-80
2023/06/25 03:03:18;;;;;;;3.47;2.35;;;;;;;-146.25;100.00;57403.91;5047155;28;20200;-80
2023/06/25 03:06:08;;;;;;;2.42;2.33;;;;;;;-146.25;100.00;57403.91;5047068;28;20274;-81
2023/06/25 03:09:20;;;;;;;2.53;2.30;;;;;;;-146.25;100.00;57403.91;5046814;28;20554;-80
2023/06/25 03:11:55;;;;;;;3.80;2.58;;;;;;;-146.25;100.00;57403.91;5049531;28;20641;-79
2023/06/25 03:14:53;;;;;;;7.50;2.78;;;;;;;-146.25;100.00;57403.91;5051463;28;20208;-80
2023/06/25 03:17:40;;;;;;;3.75;2.65;;;;;;;-146.25;100.00;57403.91;5057037;28;20209;-79
2023/06/25 03:20:14;;;;;;;5.57;2.22;;;;;;;-146.25;100.00;57403.91;5063300;28;20229;-81
2023/06/25 03:22:42;;;;;;;2.85;2.55;;;;;;;-146.25;100.00;57403.91;5060057;28;20197;-79
2023/06/25 03:25:14;;;;;;;2.42;2.13;;;;;;;-146.25;100.00;57403.91;5050900;28;20221;-79
2023/06/25 03:27:45;;;;;;;2.75;2.40;;;;;;;-146.25;100.00;57403.91;5050298;28;20202;-79
2023/06/25 03:30:46;;;;;;;3.60;2.58;;;;;;;-146.25;100.00;57403.91;5050634;28;20477;-79
2023/06/25 03:33:19;;;;;;;2.97;2.58;;;;;;;-146.25;100.00;57403.91;5051108;28;20317;-82
2023/06/25 03:35:49;;;;;;;2.70;2.50;;;;;;;-146.25;100.00;57403.91;5049846;28;20282;-80
2023/06/25 03:38:25;;;;;;;5.65;2.60;;;;;;;-146.25;100.00;57403.91;5049749;28;21067;-80
2023/06/25 03:41:17;;;;;;;2.58;2.45;;;;;;;-146.25;100.00;57403.91;5050948;28;20289;-79
2023/06/25 03:43:47;;;;;;;3.10;2.90;;;;;;;-146.25;100.00;57403.91;5049245;28;20598;-80
2023/06/25 03:46:44;;;;;;;3.53;2.58;;;;;;;-146.25;100.00;57403.91;5050503;28;20681;-80
2023/06/25 03:49:34;;;;;;;3.45;3.05;;;;;;;-146.25;100.00;57403.91;5049483;28;20729;-80
2023/06/25 03:52:17;;;;;;;3.95;2.38;;;;;;;-146.25;100.00;57403.91;5049925;28;20198;-80
2023/06/25 03:54:45;;;;;;;3.35;3.00;;;;;;;-146.25;100.00;57403.91;5048469;28;20307;-80
2023/06/25 03:57:43;;;;;;;6.35;3.17;;;;;;;-146.25;100.00;57403.91;5049576;28;20213;-80
2023/06/25 04:01:09;;;;;;;4.00;2.88;;;;;;;-146.25;100.00;57403.91;5037570;28;20792;-80
2023/06/25 04:04:36;;;;;;;6.30;3.67;;;;;;;-146.25;100.00;57403.91;5042230;28;20199;-79
2023/06/25 04:08:01;;;;;;;3.75;3.03;;;;;;;-146.25;100.00;57403.91;5042511;28;20218;-79
2023/06/25 04:11:12;;;;;;;2.55;2.40;;;;;;;-146.25;100.00;57403.91;5038065;28;20206;-79
2023/06/25 04:14:25;;;;;;;3.15;2.95;;;;;;;-146.25;100.00;57403.91;5037961;28;20666;-80
2023/06/25 04:17:48;;;;;;;3.65;3.03;;;;;;;-146.25;100.00;57403.91;5037450;28;20231;-79
2023/06/25 04:21:15;;;;;;;2.70;2.50;;;;;;;-146.25;100.00;57403.91;5038086;28;20190;-80
2023/06/25 04:24:40;;;;;;;3.38;3.08;;;;;;;-146.25;100.00;57403.91;5038082;28;20214;-81
2023/06/25 04:28:05;;;;;;;3.30;2.88;;;;;;;-146.25;100.00;57403.91;5038460;28;20224;-81
2023/06/25 04:30:36;;;;;;;10.10;3.22;;;;;;;-146.25;100.00;57403.91;5039948;28;20615;-81
2023/06/25 04:33:06;;;;;;;4.65;2.63;;;;;;;-146.25;100.00;57403.91;5039182;28;20273;-79
2023/06/25 04:35:54;;;;;;;3.92;3.33;;;;;;;-146.25;100.00;57403.91;5036584;28;20211;-80
2023/06/25 04:38:21;;;;;;;4.65;2.45;;;;;;;-146.25;100.00;57403.91;5038483;28;20296;-80
2023/06/25 04:40:54;;;;;;;7.32;3.00;;;;;;;-146.25;100.00;57403.91;5037503;28;20725;-80
2023/06/25 04:43:37;;;;;;;4.15;2.90;;;;;;;-146.25;100.00;57403.91;5039129;28;20264;-78
2023/06/25 04:46:39;;;;;;;2.75;2.53;;;;;;;-146.25;100.00;57403.91;5039288;28;20216;-79
2023/06/25 04:49:25;;;;;;;4.65;2.42;;;;;;;-146.25;100.00;57403.91;5036464;28;20233;-79
2023/06/25 04:52:19;;;;;;;3.10;2.85;;;;;;;-146.25;100.00;57403.91;5038044;28;20265;-79
2023/06/25 04:54:50;;;;;;;4.80;2.85;;;;;;;-146.25;100.00;57403.91;5038731;28;20739;-80
2023/06/25 04:57:32;;;;;;;3.08;2.45;;;;;;;-146.25;100.00;57403.91;5037255;28;20196;-79
2023/06/25 05:00:04;;;;;;;3.30;2.53;;;;;;;-146.25;100.00;57403.91;5039148;28;20248;-80
2023/06/25 05:02:43;;;;;;;4.45;2.47;;;;;;;-146.25;100.00;57403.91;5039639;28;20204;-80
2023/06/25 05:05:14;;;;;;;3.40;2.58;;;;;;;-146.25;100.00;57403.91;5038582;28;20196;-82
2023/06/25 05:08:00;;;;;;;4.35;3.25;;;;;;;-146.25;100.00;57403.91;5038077;28;20250;-80
2023/06/25 05:11:07;;;;;;;3.30;3.00;;;;;;;-146.25;100.00;57403.91;5038213;28;20348;-79
2023/06/25 05:13:38;;;;;;;2.85;2.65;;;;;;;-146.25;100.00;57403.91;5039541;28;20195;-81
2023/06/25 05:16:08;;;;;;;3.47;2.83;;;;;;;-146.25;100.00;57403.91;5038551;28;20302;-81
2023/06/25 05:18:38;;;;;;;2.30;2.10;;;;;;;-146.25;100.00;57403.91;5036618;28;20278;-81
2023/06/25 05:21:50;;;;;;;3.85;3.38;;;;;;;-146.25;100.00;57403.91;5039442;28;20217;-79
2023/06/25 05:24:28;;;;;;;3.03;2.45;;;;;;;-146.25;100.00;57403.91;5047645;28;20197;-80
2023/06/25 05:27:04;;;;;;;6.03;2.80;;;;;;;-146.25;100.00;57403.91;5047999;28;20246;-81
2023/06/25 05:29:31;;;;;;;7.07;3.35;;;;;;;-146.25;100.00;57403.91;5048202;28;20313;-80
2023/06/25 05:31:58;;;;;;;2.97;2.70;;;;;;;-146.25;100.00;57403.91;5048500;28;20308;-80
2023/06/25 05:34:25;;;;;;;5.50;3.20;;;;;;;-146.25;100.00;57403.91;5047047;28;20204;-80
2023/06/25 05:36:57;;;;;;;3.08;2.88;;;;;;;-146.25;100.00;57403.91;5047569;28;20197;-80
2023/06/25 05:39:36;;;;;;;6.00;3.03;;;;;;;-146.25;100.00;57403.91;5046429;28;20205;-80
2023/06/25 05:42:48;;;;;;;3.25;2.97;;;;;;;-146.25;100.00;57403.91;5028619;28;20200;-79
2023/06/25 05:46:14;;;;;;;4.85;2.50;;;;;;;-146.25;100.00;57403.91;5027424;28;20199;-82
2023/06/25 05:49:34;;;;;;;4.00;2.97;;;;;;;-146.25;100.00;57403.91;5027338;28;20624;-81
2023/06/25 05:52:23;;;;;;;4.10;2.63;;;;;;;-146.25;100.00;57403.91;5028319;28;20273;-81
2023/06/25 05:55:50;;;;;;;4.28;2.97;;;;;;;-146.25;100.00;57403.91;5027333;28;20245;-80
2023/06/25 05:59:16;;;;;;;5.30;3.45;;;;;;;-146.25;100.00;57403.91;5027611;28;20247;-80
2023/06/25 06:02:42;;;;;;;3.88;3.58;;;;;;;-146.25;100.00;57403.91;5028952;28;20219;-81
2023/06/25 06:06:07;;;;;;;4.63;3.20;;;;;;;-146.25;100.00;57403.91;5041694;28;20196;-82
2023/06/25 06:09:33;;;;;;;3.47;2.88;;;;;;;-146.25;100.00;57403.91;5047422;28;20215;-81
2023/06/25 06:12:06;;;;;;;3.42;2.60;;;;;;;-146.25;100.00;57403.91;5037507;28;20246;-81
2023/06/25 06:14:37;;;;;;;3.72;3.40;;;;;;;-146.25;100.00;57403.91;5040917;28;20200;-81
2023/06/25 06:17:04;;;;;;;3.20;2.90;;;;;;;-146.25;100.00;57403.91;5041125;28;20619;-80
2023/06/25 06:19:33;;;;;;;4.20;3.80;;;;;;;-146.25;100.00;57403.91;5046921;28;20199;-80
2023/06/25 06:22:02;;;;;;;5.18;3.15;;;;;;;-146.25;100.00;57403.91;5040047;28;20218;-80
2023/06/25 06:24:33;;;;;;;2.80;2.67;;;;;;;-146.25;100.00;57403.91;5039117;28;20257;-80
2023/06/25 06:27:04;;;;;;;2.15;2.05;;;;;;;-146.25;100.00;57403.91;5038346;28;20649;-84
2023/06/25 06:30:18;;;;;;;3.10;2.35;;;;;;;-146.25;100.00;57403.91;5028599;28;20248;-82
2023/06/25 06:33:04;;;;;;;3.88;2.83;;;;;;;-146.25;100.00;57403.91;5046745;28;20213;-82
2023/06/25 06:36:29;;;;;;;5.28;2.83;;;;;;;-146.25;100.00;57403.91;5047007;28;20249;-82
2023/06/25 06:39:54;;;;;;;2.97;2.78;;;;;;;-146.25;100.00;57403.91;5047482;28;20215;-82
2023/06/25 06:43:11;;;;;;;2.75;2.53;;;;;;;-146.25;100.00;57403.91;5046717;28;20646;-83
2023/06/25 06:46:36;;;;;;;4.10;2.95;;;;;;;-146.25;100.00;57403.91;5047968;28;20325;-83
2023/06/25 06:50:02;;;;;;;3.45;3.15;;;;;;;-146.25;100.00;57403.91;5039869;28;20227;-83
2023/06/25 06:53:28;;;;;;;2.75;2.55;;;;;;;-146.25;100.00;57403.91;5051217;28;20300;-82
2023/06/25 06:56:54;;;;;;;6.70;3.80;;;;;;;-146.25;100.00;57403.91;5051747;28;20238;-85
2023/06/25 07:00:21;;;;;;;3.35;1.98;;;;;;;-146.25;100.00;57403.91;5053892;28;20680;-82
2023/06/25 07:03:06;;;;;;;4.78;2.50;;;;;;;-146.25;100.00;57403.91;5046429;28;20735;-81
2023/06/25 07:05:33;;;;;;;2.15;2.05;;;;;;;-146.25;100.00;57403.91;5037223;28;20200;-81
2023/06/25 07:08:01;;;;;;;2.88;2.20;;;;;;;-146.25;100.00;57403.91;5049236;28;20573;-81
2023/06/25 07:10:28;;;;;;;2.55;2.35;;;;;;;-146.25;100.00;57403.91;5052644;28;20215;-83
2023/06/25 07:13:05;;;;;;;3.25;2.70;;;;;;;-146.25;100.00;57403.91;5038246;28;20235;-82
2023/06/25 07:15:37;;;;;;;2.42;2.28;;;;;;;-146.25;100.00;57403.91;5033579;28;20200;-83
2023/06/25 07:18:04;;;;;;;2.42;2.30;;;;;;;-146.25;100.00;57403.91;5031774;28;20452;-82
2023/06/25 07:20:30;;;;;;;3.22;2.40;;;;;;;-146.25;100.00;57403.91;5031807;28;20261;-83
2023/06/25 07:22:57;;;;;;;2.88;2.72;;;;;;;-146.25;100.00;57403.91;5035331;28;20207;-84
2023/06/25 07:25:24;;;;;;;2.10;2.00;;;;;;;-146.25;100.00;57403.91;5031192;28;20672;-81
2023/06/25 07:27:51;;;;;;;3.03;1.95;;;;;;;-146.25;100.00;57403.91;5030734;28;20210;-83
2023/06/25 07:30:18;;;;;;;2.42;2.20;;;;;;;-146.25;100.00;57403.91;5045647;28;20241;-82
2023/06/25 07:32:46;;;;;;;4.30;2.28;;;;;;;-146.25;100.00;57403.91;5037347;28;20232;-82
2023/06/25 07:35:13;;;;;;;2.40;2.30;;;;;;;-146.25;100.00;57403.91;5041870;28;20228;-82
2023/06/25 07:37:41;;;;;;;2.22;2.08;;;;;;;-146.25;100.00;57403.91;5041674;28;20232;-83
2023/06/25 07:40:09;;;;;;;2.15;1.95;;;;;;;-146.25;100.00;57403.91;5040387;28;20773;-82
2023/06/25 07:42:36;;;;;;;1.90;1.80;;;;;;;-146.25;100.00;57403.91;5036091;28;20235;-82
2023/06/25 07:45:04;;;;;;;1.60;1.38;;;;;;;-146.25;100.00;57403.91;5049936;28;20306;-83
2023/06/25 07:47:31;;;;;;;2.70;2.50;;;;;;;-146.25;100.00;57403.91;5048947;28;20227;-83
2023/06/25 07:49:59;;;;;;;1.65;1.55;;;;;;;-146.25;100.00;57403.91;5049949;28;20236;-82
2023/06/25 07:52:26;;;;;;;2.58;2.38;;;;;;;-146.25;100.00;57403.91;5050851;28;20677;-83
2023/06/25 07:54:53;;;;;;;2.75;2.22;;;;;;;-146.25;100.00;57403.91;5050254;28;20341;-82
2023/06/25 07:57:20;;;;;;;2.53;2.25;;;;;;;-146.25;100.00;57403.91;5047291;28;20266;-83
2023/06/25 07:59:47;;;;;;;3.38;3.17;;;;;;;-146.25;100.00;57403.91;5048968;28;20230;-83
2023/06/25 08:02:14;;;;;;;3.03;2.83;;;;;;;-146.25;100.00;57403.91;5049534;28;20227;-84
2023/06/25 08:04:41;;;;;;;3.13;2.90;;;;;;;-146.25;100.00;57403.91;5049225;28;20230;-85
2023/06/25 08:07:09;;;;;;;3.05;2.78;;;;;;;-146.25;100.00;57403.91;5050729;28;20228;-83
2023/06/25 08:09:36;;;;;;;3.40;3.10;;;;;;;-146.25;100.00;57403.91;5048429;28;20251;-84
2023/06/25 08:12:04;;;;;;;2.90;2.70;;;;;;;-146.25;100.00;57403.91;5049212;28;20223;-84
2023/06/25 08:14:31;;;;;;;3.42;3.13;;;;;;;-146.25;100.00;57403.91;5049166;28;20234;-83
2023/06/25 08:16:58;;;;;;;4.55;2.90;;;;;;;-146.25;100.00;57403.91;5049923;28;20227;-83
2023/06/25 08:19:25;;;;;;;3.17;2.97;;;;;;;-146.25;100.00;57403.91;5048286;28;20216;-83
2023/06/25 08:21:54;;;;;;;2.90;2.80;;;;;;;-146.25;100.00;57403.91;5049455;28;20357;-84
2023/06/25 08:24:22;;;;;;;2.17;2.03;;;;;;;-146.25;100.00;57403.91;5048750;28;20293;-85
2023/06/25 08:26:51;;;;;;;2.78;2.58;;;;;;;-146.25;100.00;57403.91;5049301;28;20773;-85
2023/06/25 08:29:23;;;;;;;2.17;2.08;;;;;;;-146.25;100.00;57403.91;5049440;28;20216;-84
2023/06/25 08:32:48;;;;;;;2.42;2.33;;;;;;;-146.25;100.00;57403.91;5049552;28;20384;-84
2023/06/25 08:36:14;;;;;;;3.25;2.00;;;;;;;-146.25;100.00;57403.91;5049849;28;20239;-83
2023/06/25 08:39:15;;;;;;;2.10;1.95;;;;;;;-146.25;100.00;57403.91;5049471;28;20714;-84
2023/06/25 08:41:51;;;;;;;2.55;2.45;;;;;;;-146.25;100.00;57403.91;5048784;28;20300;-83
2023/06/25 08:45:17;;;;;;;2.45;2.35;;;;;;;-146.25;100.00;57403.91;5049742;28;20342;-83
2023/06/25 08:48:43;;;;;;;2.45;2.35;;;;;;;-146.25;100.00;57403.91;5048879;28;20610;-84
2023/06/25 08:51:26;;;;;;;4.50;2.17;;;;;;;-146.25;100.00;57403.91;5048813;28;20671;-84
2023/06/25 08:53:58;;;;;;;3.45;1.77;;;;;;;-146.25;100.00;57403.91;5049426;28;20227;-84
2023/06/25 08:57:25;;;;;;;2.00;1.90;;;;;;;-146.25;100.00;57403.91;5046818;28;20613;-83
2023/06/25 09:00:51;;;;;;;2.70;2.50;;;;;;;-146.25;100.00;57403.91;5048896;28;20285;-83
2023/06/25 09:04:16;;;;;;;1.90;1.80;;;;;;;-146.25;100.00;57403.91;5048219;28;20231;-84
2023/06/25 09:07:15;;;;;;;2.30;2.20;;;;;;;-146.25;100.00;57403.91;5048120;28;20227;-84
2023/06/25 09:10:40;;;;;;;1.92;1.83;;;;;;;-146.25;100.00;57403.91;5047991;28;20660;-85
2023/06/25 09:14:07;;;;;;;1.90;1.80;;;;;;;-146.25;100.00;57403.91;5037789;28;20762;-83
2023/06/25 09:17:33;;;;;;;2.13;2.03;;;;;;;-146.25;100.00;57403.91;5027720;28;20231;-83
2023/06/25 09:21:02;;;;;;;1.60;1.60;;;;;;;-146.25;100.00;57403.91;5028318;28;20284;-83
2023/06/25 09:24:31;;;;;;;2.38;2.00;;;;;;;-146.25;100.00;57403.91;5028639;28;20563;-82
2023/06/25 09:27:22;;;;;;;1.90;1.80;;;;;;;-146.25;100.00;57403.91;5027434;28;20594;-84
2023/06/25 09:30:55;;;;;;;2.03;1.92;;;;;;;-146.25;100.00;57403.91;5028763;28;20329;-85
2023/06/25 09:33:40;;;;;;;1.90;1.80;;;;;;;-146.25;100.00;57403.91;5028297;28;20235;-84
2023/06/25 09:36:11;;;;;;;2.08;1.98;;;;;;;-146.25;100.00;57403.91;5027942;28;20240;-85
2023/06/25 09:39:12;;;;;;;2.30;2.05;;;;;;;-146.25;100.00;57403.91;5026518;28;20285;-85
2023/06/25 09:41:42;;;;;;;1.90;1.80;;;;;;;-146.25;100.00;57403.91;5026958;28;20223;-85
2023/06/25 09:44:43;;;;;;;2.03;1.92;;;;;;;-146.25;100.00;57403.91;5047016;28;20306;-85
2023/06/25 09:47:43;;;;;;;1.50;1.50;;;;;;;-146.25;100.00;57403.91;5047124;28;20223;-83
2023/06/25 09:51:13;;;;;;;1.92;1.83;;;;;;;-146.25;100.00;57403.91;5047696;28;20251;-83
2023/06/25 09:54:40;;;;;;;2.25;2.08;;;;;;;-146.25;100.00;57403.91;5046670;28;20795;-84
2023/06/25 09:57:54;;;;;;;2.30;2.20;;;;;;;-146.25;100.00;57403.91;5047053;28;20709;-83
2023/06/25 10:00:24;;;;;;;2.10;2.00;;;;;;;-146.25;100.00;57403.91;5047017;28;20219;-83
2023/06/25 10:02:53;;;;;;;2.75;2.08;;;;;;;-146.25;100.00;57403.91;5047519;28;20302;-85
2023/06/25 10:05:21;;;;;;;2.53;2.42;;;;;;;-146.25;100.00;57403.91;5047002;28;20223;-83
2023/06/25 10:08:32;;;;;;;1.73;1.70;;;;;;;-146.25;100.00;57403.91;5046994;28;20660;-86
2023/06/25 10:11:58;;;;;;;2.45;2.28;;;;;;;-146.25;100.00;57403.91;5046949;28;20237;-84
2023/06/25 10:15:27;;;;;;;2.00;1.90;;;;;;;-146.25;100.00;57403.91;5045758;28;20692;-85
2023/06/25 10:18:57;;;;;;;2.00;1.90;;;;;;;-146.25;100.00;57403.91;5046069;28;20632;-86
2023/06/25 10:22:24;;;;;;;2.00;1.90;;;;;;;-146.25;100.00;57403.91;5046778;28;20227;-83
2023/06/25 10:25:54;;;;;;;1.83;1.80;;;;;;;-146.25;100.00;57403.91;5046711;28;20251;-86
2023/06/25 10:29:27;;;;;;;2.15;2.05;;;;;;;-146.25;100.00;57403.91;5045928;28;20234;-87
2023/06/25 10:33:05;;;;;;;2.75;2.42;;;;;;;-146.25;100.00;57403.91;5045795;28;20231;-86
2023/06/25 10:36:35;;;;;;;2.70;2.13;;;;;;;-146.25;100.00;57403.91;5046511;28;20239;-83
2023/06/25 10:40:02;;;;;;;2.10;2.00;;;;;;;-146.25;100.00;57403.91;5046388;28;20603;-84
2023/06/25 10:43:29;;;;;;;2.78;2.40;;;;;;;-146.25;100.00;57403.91;5040228;28;20329;-84
2023/06/25 10:47:02;;;;;;;1.90;1.90;;;;;;;-146.25;100.00;57403.91;5026343;28;20219;-83
2023/06/25 10:50:30;;;;;;;2.00;1.90;;;;;;;-146.25;100.00;57403.91;5026476;28;20247;-82
2023/06/25 10:53:55;;;;;;;2.28;1.75;;;;;;;-146.25;100.00;57403.91;5025552;28;20239;-83
2023/06/25 10:57:21;;;;;;;1.95;1.85;;;;;;;-146.25;100.00;57403.91;5030302;28;20653;-86
2023/06/25 11:00:47;;;;;;;2.38;2.05;;;;;;;-146.25;100.00;57403.91;5038937;28;20305;-85
2023/06/25 11:04:14;;;;;;;2.17;1.83;;;;;;;-146.25;100.00;57403.91;5028033;28;20227;-85
2023/06/25 11:07:41;;;;;;;2.25;1.88;;;;;;;-146.25;100.00;57403.91;5027189;28;20228;-85
2023/06/25 11:11:06;;;;;;;2.28;1.50;;;;;;;-146.25;100.00;57403.91;5026202;28;20231;-83
2023/06/25 11:14:33;;;;;;;1.83;1.73;;;;;;;-146.25;100.00;57403.91;5040587;28;20239;-84
2023/06/25 11:17:58;;;;;;;2.13;2.03;;;;;;;-146.25;100.00;57403.91;5046319;28;20234;-82
2023/06/25 11:21:24;;;;;;;2.40;1.67;;;;;;;-146.25;100.00;57403.91;5045838;28;20581;-83
2023/06/25 11:24:52;;;;;;;2.17;1.95;;;;;;;-146.25;100.00;57403.91;5045461;28;20794;-83
2023/06/25 11:28:22;;;;;;;2.00;1.90;;;;;;;-146.25;100.00;57403.91;5047193;28;20719;-82
2023/06/25 11:31:51;;;;;;;2.10;1.58;;;;;;;-146.25;100.00;57403.91;5046876;28;20231;-85
2023/06/25 11:35:21;;;;;;;1.90;1.80;;;;;;;-146.25;100.00;57403.91;5050460;28;20211;-84
2023/06/25 11:38:48;;;;;;;2.22;2.08;;;;;;;-146.25;100.00;57403.91;5049675;28;20227;-84
2023/06/25 11:42:15;;;;;;;1.65;1.55;;;;;;;-146.25;100.00;57403.91;5049061;28;20227;-83
2023/06/25 11:45:42;;;;;;;2.70;1.55;;;;;;;-146.25;100.00;57403.91;5048373;28;20230;-83
2023/06/25 11:49:11;;;;;;;2.05;1.42;;;;;;;-146.25;100.00;57403.91;5050296;28;20238;-82
2023/06/25 11:52:37;;;;;;;1.70;1.60;;;;;;;-146.25;100.00;57403.91;5048928;28;20615;-84
2023/06/25 11:56:03;;;;;;;1.65;1.58;;;;;;;-146.25;100.00;57403.91;5048385;28;20231;-82
2023/06/25 11:59:30;;;;;;;1.80;1.70;;;;;;;-146.25;100.00;57403.91;5049149;28;20231;-83
2023/06/25 12:02:56;;;;;;;1.65;1.55;;;;;;;-146.25;100.00;57403.91;5050012;28;20249;-83
2023/06/25 12:06:21;;;;;;;1.85;1.70;;;;;;;-146.25;100.00;57403.91;5047851;28;20655;-84
2023/06/25 12:09:46;;;;;;;4.90;2.25;;;;;;;-146.25;100.00;57403.91;5048279;28;20203;-83
2023/06/25 12:13:12;;;;;;;1.50;1.50;;;;;;;-146.25;100.00;57403.91;5048182;28;20239;-84
2023/06/25 12:16:39;;;;;;;2.35;1.38;;;;;;;-146.25;100.00;57403.91;5048376;28;20420;-85
2023/06/25 12:20:05;;;;;;;2.03;1.92;;;;;;;-146.25;100.00;57403.91;5048951;28;20203;-85
2023/06/25 12:23:32;;;;;;;5.03;1.70;;;;;;;-146.25;100.00;57403.91;5049561;28;20199;-83
2023/06/25 12:26:57;;;;;;;1.55;1.55;;;;;;;-146.25;100.00;57403.91;5049534;28;20203;-84
2023/06/25 12:30:23;;;;;;;1.95;1.80;;;;;;;-146.25;100.00;57403.91;5050174;28;20211;-84
2023/06/25 12:33:50;;;;;;;1.38;1.38;;;;;;;-146.25;100.00;57403.91;5050173;28;20281;-85
2023/06/25 12:37:16;;;;;;;1.42;1.33;;;;;;;-146.25;100.00;57403.91;5054510;28;20257;-84
2023/06/25 12:40:42;;;;;;;1.60;1.50;;;;;;;-146.25;100.00;57403.91;5053031;28;20214;-85
2023/06/25 12:44:09;;;;;;;1.88;1.70;;;;;;;-146.25;100.00;57403.91;5058603;28;20199;-86
2023/06/25 12:47:34;;;;;;;2.63;1.63;;;;;;;-146.25;100.00;57403.91;5052290;28;20573;-84
2023/06/25 12:51:01;;;;;;;1.20;1.13;;;;;;;-146.25;100.00;57403.91;5054010;28;20239;-84
2023/06/25 12:54:27;;;;;;;3.15;1.48;;;;;;;-146.25;100.00;57403.91;5051402;28;20235;-84
2023/06/25 12:57:52;;;;;;;1.63;1.52;;;;;;;-146.25;100.00;57403.91;5051139;28;20215;-84
2023/06/25 13:01:18;;;;;;;1.20;1.10;;;;;;;-146.25;100.00;57403.91;5052406;28;20200;-84
2023/06/25 13:04:41;;;;;;;1.20;1.20;;;;;;;-146.25;100.00;57403.91;5052293;28;20426;-83
2023/06/25 13:08:08;;;;;;;1.63;1.38;;;;;;;-146.25;100.00;57403.91;5051649;28;20443;-83
2023/06/25 13:11:34;;;;;;;3.53;2.25;;;;;;;-146.25;100.00;57403.91;5049985;28;20569;-86